sensor_id;sensor_type;location;lat;lon;timestamp;P1;durP1;ratioP1;P2;durP2;ratioP2
29206;SDS011;16247;50.840;4.382;2023-02-08T00:01:38;23.50;;;14.23;;
29206;SDS011;16247;50.840;4.382;2023-02-08T00:04:04;27.08;;;14.52;;
29206;SDS011;16247;50.840;4.382;2023-02-08T00:06:30;27.20;;;14.95;;
29206;SDS011;16247;50.840;4.382;2023-02-08T00:08:56;24.38;;;14.55;;
29206;SDS011;16247;50.840;4.382;2023-02-08T00:11:22;24.65;;;14.80;;
29206;SDS011;16247;50.840;4.382;2023-02-08T00:13:48;24.92;;;14.63;;
29206;SDS011;16247;50.840;4.382;2023-02-08T00:16:14;25.27;;;14.57;;
29206;SDS011;16247;50.840;4.382;2023-02-08T00:18:40;23.83;;;14.48;;
29206;SDS011;16247;50.840;4.382;2023-02-08T00:21:07;27.00;;;14.63;;
29206;SDS011;16247;50.840;4.382;2023-02-08T00:23:33;25.88;;;13.98;;
29206;SDS011;16247;50.840;4.382;2023-02-08T00:25:59;24.13;;;14.73;;
29206;SDS011;16247;50.840;4.382;2023-02-08T00:31:33;22.90;;;14.80;;
29206;SDS011;16247;50.840;4.382;2023-02-08T00:34:01;23.95;;;14.70;;
29206;SDS011;16247;50.840;4.382;2023-02-08T00:36:26;20.60;;;13.55;;
29206;SDS011;16247;50.840;4.382;2023-02-08T00:38:53;23.33;;;14.55;;
29206;SDS011;16247;50.840;4.382;2023-02-08T00:41:19;23.58;;;14.73;;
29206;SDS011;16247;50.840;4.382;2023-02-08T00:43:45;19.67;;;14.48;;
29206;SDS011;16247;50.840;4.382;2023-02-08T00:46:13;24.85;;;15.00;;
29206;SDS011;16247;50.840;4.382;2023-02-08T00:48:39;25.35;;;14.55;;
29206;SDS011;16247;50.840;4.382;2023-02-08T00:51:06;22.05;;;14.07;;
29206;SDS011;16247;50.840;4.382;2023-02-08T00:53:35;30.38;;;15.13;;
29206;SDS011;16247;50.840;4.382;2023-02-08T00:56:02;27.63;;;15.40;;
29206;SDS011;16247;50.840;4.382;2023-02-08T00:58:27;24.38;;;15.15;;
29206;SDS011;16247;50.840;4.382;2023-02-08T01:01:01;23.23;;;13.32;;
29206;SDS011;16247;50.840;4.382;2023-02-08T01:03:32;25.60;;;14.00;;
29206;SDS011;16247;50.840;4.382;2023-02-08T01:05:59;25.85;;;13.60;;
29206;SDS011;16247;50.840;4.382;2023-02-08T01:08:25;22.48;;;13.50;;
29206;SDS011;16247;50.840;4.382;2023-02-08T01:10:51;22.38;;;13.05;;
29206;SDS011;16247;50.840;4.382;2023-02-08T01:13:17;23.15;;;13.38;;
29206;SDS011;16247;50.840;4.382;2023-02-08T01:15:46;20.75;;;13.27;;
29206;SDS011;16247;50.840;4.382;2023-02-08T01:18:11;23.00;;;14.07;;
29206;SDS011;16247;50.840;4.382;2023-02-08T01:20:37;20.33;;;13.02;;
29206;SDS011;16247;50.840;4.382;2023-02-08T01:23:03;23.63;;;13.95;;
29206;SDS011;16247;50.840;4.382;2023-02-08T01:25:28;26.98;;;14.15;;
29206;SDS011;16247;50.840;4.382;2023-02-08T01:27:54;22.42;;;14.13;;
29206;SDS011;16247;50.840;4.382;2023-02-08T01:30:21;24.60;;;13.40;;
29206;SDS011;16247;50.840;4.382;2023-02-08T01:32:48;24.75;;;13.95;;
29206;SDS011;16247;50.840;4.382;2023-02-08T01:35:14;21.65;;;13.30;;
29206;SDS011;16247;50.840;4.382;2023-02-08T01:37:40;24.13;;;13.88;;
29206;SDS011;16247;50.840;4.382;2023-02-08T01:40:07;27.30;;;13.50;;
29206;SDS011;16247;50.840;4.382;2023-02-08T01:42:35;19.63;;;12.40;;
29206;SDS011;16247;50.840;4.382;2023-02-08T01:45:43;26.60;;;13.23;;
29206;SDS011;16247;50.840;4.382;2023-02-08T01:48:07;20.90;;;13.02;;
29206;SDS011;16247;50.840;4.382;2023-02-08T01:50:58;23.17;;;14.20;;
29206;SDS011;16247;50.840;4.382;2023-02-08T01:53:25;21.05;;;12.13;;
29206;SDS011;16247;50.840;4.382;2023-02-08T01:55:54;21.55;;;13.57;;
29206;SDS011;16247;50.840;4.382;2023-02-08T01:58:27;20.95;;;12.23;;
29206;SDS011;16247;50.840;4.382;2023-02-08T02:00:54;23.02;;;14.07;;
29206;SDS011;16247;50.840;4.382;2023-02-08T02:03:21;22.83;;;12.55;;
29206;SDS011;16247;50.840;4.382;2023-02-08T02:05:49;22.52;;;13.00;;
29206;SDS011;16247;50.840;4.382;2023-02-08T02:08:20;21.52;;;13.25;;
29206;SDS011;16247;50.840;4.382;2023-02-08T02:10:47;19.52;;;13.13;;
29206;SDS011;16247;50.840;4.382;2023-02-08T02:13:18;21.02;;;12.45;;
29206;SDS011;16247;50.840;4.382;2023-02-08T02:15:46;21.30;;;12.75;;
29206;SDS011;16247;50.840;4.382;2023-02-08T02:18:34;23.23;;;13.38;;
29206;SDS011;16247;50.840;4.382;2023-02-08T02:21:12;22.02;;;13.23;;
29206;SDS011;16247;50.840;4.382;2023-02-08T02:32:31;19.50;;;12.27;;
29206;SDS011;16247;50.840;4.382;2023-02-08T02:35:16;24.55;;;13.27;;
29206;SDS011;16247;50.840;4.382;2023-02-08T02:40:34;23.30;;;13.55;;
29206;SDS011;16247;50.840;4.382;2023-02-08T02:46:26;23.33;;;13.00;;
29206;SDS011;16247;50.840;4.382;2023-02-08T02:49:44;22.75;;;14.05;;
29206;SDS011;16247;50.840;4.382;2023-02-08T02:52:13;22.77;;;13.32;;
29206;SDS011;16247;50.840;4.382;2023-02-08T02:54:49;21.50;;;13.02;;
29206;SDS011;16247;50.840;4.382;2023-02-08T02:57:23;21.73;;;12.95;;
29206;SDS011;16247;50.840;4.382;2023-02-08T02:59:53;19.92;;;12.45;;
29206;SDS011;16247;50.840;4.382;2023-02-08T03:02:18;21.58;;;12.05;;
29206;SDS011;16247;50.840;4.382;2023-02-08T03:04:47;19.10;;;12.05;;
29206;SDS011;16247;50.840;4.382;2023-02-08T03:27:00;21.30;;;13.38;;
29206;SDS011;16247;50.840;4.382;2023-02-08T03:32:30;19.17;;;12.77;;
29206;SDS011;16247;50.840;4.382;2023-02-08T03:35:22;25.63;;;13.75;;
29206;SDS011;16247;50.840;4.382;2023-02-08T03:38:03;24.98;;;13.32;;
29206;SDS011;16247;50.840;4.382;2023-02-08T03:40:38;22.95;;;13.00;;
29206;SDS011;16247;50.840;4.382;2023-02-08T03:43:07;20.67;;;13.35;;
29206;SDS011;16247;50.840;4.382;2023-02-08T03:45:41;21.60;;;12.90;;
29206;SDS011;16247;50.840;4.382;2023-02-08T03:48:14;20.63;;;12.82;;
29206;SDS011;16247;50.840;4.382;2023-02-08T03:53:10;23.37;;;14.50;;
29206;SDS011;16247;50.840;4.382;2023-02-08T03:55:37;21.92;;;12.93;;
29206;SDS011;16247;50.840;4.382;2023-02-08T04:01:00;22.20;;;13.45;;
29206;SDS011;16247;50.840;4.382;2023-02-08T04:03:29;22.05;;;13.82;;
29206;SDS011;16247;50.840;4.382;2023-02-08T04:05:57;23.40;;;12.80;;
29206;SDS011;16247;50.840;4.382;2023-02-08T04:08:24;30.50;;;13.80;;
29206;SDS011;16247;50.840;4.382;2023-02-08T04:10:50;25.85;;;13.68;;
29206;SDS011;16247;50.840;4.382;2023-02-08T04:13:15;24.17;;;13.48;;
29206;SDS011;16247;50.840;4.382;2023-02-08T04:15:41;24.15;;;14.02;;
29206;SDS011;16247;50.840;4.382;2023-02-08T04:18:08;27.13;;;14.05;;
29206;SDS011;16247;50.840;4.382;2023-02-08T04:20:34;21.95;;;12.75;;
29206;SDS011;16247;50.840;4.382;2023-02-08T04:23:00;21.05;;;12.88;;
29206;SDS011;16247;50.840;4.382;2023-02-08T04:25:32;19.55;;;12.68;;
29206;SDS011;16247;50.840;4.382;2023-02-08T04:27:57;23.42;;;13.20;;
29206;SDS011;16247;50.840;4.382;2023-02-08T04:30:23;22.17;;;13.02;;
29206;SDS011;16247;50.840;4.382;2023-02-08T04:32:50;21.85;;;13.15;;
29206;SDS011;16247;50.840;4.382;2023-02-08T04:35:16;25.23;;;13.70;;
29206;SDS011;16247;50.840;4.382;2023-02-08T04:37:42;21.63;;;12.88;;
29206;SDS011;16247;50.840;4.382;2023-02-08T04:40:07;24.52;;;13.48;;
29206;SDS011;16247;50.840;4.382;2023-02-08T04:42:33;24.35;;;13.60;;
29206;SDS011;16247;50.840;4.382;2023-02-08T04:44:59;21.45;;;12.45;;
29206;SDS011;16247;50.840;4.382;2023-02-08T04:47:25;21.33;;;11.68;;
29206;SDS011;16247;50.840;4.382;2023-02-08T04:49:51;23.80;;;13.80;;
29206;SDS011;16247;50.840;4.382;2023-02-08T04:52:16;19.23;;;11.88;;
29206;SDS011;16247;50.840;4.382;2023-02-08T04:54:42;24.67;;;13.27;;
29206;SDS011;16247;50.840;4.382;2023-02-08T04:57:10;22.50;;;12.73;;
29206;SDS011;16247;50.840;4.382;2023-02-08T04:59:38;22.33;;;12.77;;
29206;SDS011;16247;50.840;4.382;2023-02-08T05:02:03;19.15;;;12.55;;
29206;SDS011;16247;50.840;4.382;2023-02-08T05:04:29;21.77;;;13.20;;
29206;SDS011;16247;50.840;4.382;2023-02-08T05:06:57;21.90;;;13.00;;
29206;SDS011;16247;50.840;4.382;2023-02-08T05:09:23;21.83;;;12.60;;
29206;SDS011;16247;50.840;4.382;2023-02-08T05:15:11;20.13;;;11.68;;
29206;SDS011;16247;50.840;4.382;2023-02-08T05:17:40;23.25;;;13.77;;
29206;SDS011;16247;50.840;4.382;2023-02-08T05:20:06;19.73;;;12.23;;
29206;SDS011;16247;50.840;4.382;2023-02-08T05:22:32;21.88;;;12.88;;
29206;SDS011;16247;50.840;4.382;2023-02-08T05:24:58;22.13;;;12.98;;
29206;SDS011;16247;50.840;4.382;2023-02-08T05:27:24;23.00;;;13.70;;
29206;SDS011;16247;50.840;4.382;2023-02-08T05:29:51;23.65;;;13.27;;
29206;SDS011;16247;50.840;4.382;2023-02-08T05:32:17;21.83;;;12.32;;
29206;SDS011;16247;50.840;4.382;2023-02-08T05:34:43;22.58;;;11.88;;
29206;SDS011;16247;50.840;4.382;2023-02-08T05:37:09;20.60;;;12.88;;
29206;SDS011;16247;50.840;4.382;2023-02-08T05:39:37;21.20;;;12.68;;
29206;SDS011;16247;50.840;4.382;2023-02-08T05:42:02;23.52;;;12.25;;
29206;SDS011;16247;50.840;4.382;2023-02-08T05:44:28;20.58;;;13.05;;
29206;SDS011;16247;50.840;4.382;2023-02-08T05:46:59;20.85;;;12.57;;
29206;SDS011;16247;50.840;4.382;2023-02-08T05:49:27;25.05;;;12.10;;
29206;SDS011;16247;50.840;4.382;2023-02-08T05:54:24;22.33;;;11.52;;
29206;SDS011;16247;50.840;4.382;2023-02-08T05:56:51;17.50;;;11.20;;
29206;SDS011;16247;50.840;4.382;2023-02-08T05:59:17;21.95;;;12.52;;
29206;SDS011;16247;50.840;4.382;2023-02-08T06:01:43;20.45;;;12.07;;
29206;SDS011;16247;50.840;4.382;2023-02-08T06:04:09;27.00;;;13.10;;
29206;SDS011;16247;50.840;4.382;2023-02-08T06:06:34;20.73;;;13.10;;
29206;SDS011;16247;50.840;4.382;2023-02-08T06:09:00;21.00;;;12.07;;
29206;SDS011;16247;50.840;4.382;2023-02-08T06:11:26;19.45;;;11.77;;
29206;SDS011;16247;50.840;4.382;2023-02-08T06:13:53;20.60;;;12.35;;
29206;SDS011;16247;50.840;4.382;2023-02-08T06:16:18;19.10;;;11.55;;
29206;SDS011;16247;50.840;4.382;2023-02-08T06:18:44;21.65;;;13.13;;
29206;SDS011;16247;50.840;4.382;2023-02-08T06:21:10;19.08;;;12.05;;
29206;SDS011;16247;50.840;4.382;2023-02-08T06:23:36;23.33;;;12.52;;
29206;SDS011;16247;50.840;4.382;2023-02-08T06:26:02;22.88;;;11.27;;
29206;SDS011;16247;50.840;4.382;2023-02-08T06:28:28;20.00;;;12.55;;
29206;SDS011;16247;50.840;4.382;2023-02-08T06:30:57;26.38;;;13.13;;
29206;SDS011;16247;50.840;4.382;2023-02-08T06:33:24;29.98;;;13.45;;
29206;SDS011;16247;50.840;4.382;2023-02-08T06:35:54;21.40;;;12.30;;
29206;SDS011;16247;50.840;4.382;2023-02-08T06:38:20;23.13;;;12.45;;
29206;SDS011;16247;50.840;4.382;2023-02-08T06:40:46;22.35;;;12.60;;
29206;SDS011;16247;50.840;4.382;2023-02-08T06:43:15;25.20;;;13.15;;
29206;SDS011;16247;50.840;4.382;2023-02-08T06:45:43;24.30;;;12.63;;
29206;SDS011;16247;50.840;4.382;2023-02-08T06:48:10;23.52;;;13.20;;
29206;SDS011;16247;50.840;4.382;2023-02-08T06:50:36;24.13;;;13.18;;
29206;SDS011;16247;50.840;4.382;2023-02-08T06:53:02;24.35;;;14.45;;
29206;SDS011;16247;50.840;4.382;2023-02-08T06:55:29;24.05;;;14.90;;
29206;SDS011;16247;50.840;4.382;2023-02-08T06:57:57;23.52;;;12.50;;
29206;SDS011;16247;50.840;4.382;2023-02-08T07:00:25;23.95;;;12.85;;
29206;SDS011;16247;50.840;4.382;2023-02-08T07:02:50;27.33;;;13.50;;
29206;SDS011;16247;50.840;4.382;2023-02-08T07:05:17;24.42;;;14.13;;
29206;SDS011;16247;50.840;4.382;2023-02-08T07:07:43;23.83;;;13.25;;
29206;SDS011;16247;50.840;4.382;2023-02-08T07:10:11;26.95;;;14.40;;
29206;SDS011;16247;50.840;4.382;2023-02-08T07:12:38;31.33;;;15.52;;
29206;SDS011;16247;50.840;4.382;2023-02-08T07:15:04;26.83;;;15.10;;
29206;SDS011;16247;50.840;4.382;2023-02-08T07:17:32;28.20;;;14.80;;
29206;SDS011;16247;50.840;4.382;2023-02-08T07:19:59;25.35;;;14.27;;
29206;SDS011;16247;50.840;4.382;2023-02-08T07:22:28;23.67;;;14.37;;
29206;SDS011;16247;50.840;4.382;2023-02-08T07:24:53;24.15;;;14.35;;
29206;SDS011;16247;50.840;4.382;2023-02-08T07:27:21;23.80;;;13.18;;
29206;SDS011;16247;50.840;4.382;2023-02-08T07:29:48;22.23;;;13.82;;
29206;SDS011;16247;50.840;4.382;2023-02-08T07:32:14;23.92;;;12.40;;
29206;SDS011;16247;50.840;4.382;2023-02-08T07:34:39;26.70;;;12.35;;
29206;SDS011;16247;50.840;4.382;2023-02-08T07:37:10;21.65;;;12.52;;
29206;SDS011;16247;50.840;4.382;2023-02-08T07:40:03;27.38;;;14.05;;
29206;SDS011;16247;50.840;4.382;2023-02-08T07:42:32;22.27;;;13.23;;
29206;SDS011;16247;50.840;4.382;2023-02-08T07:44:58;24.38;;;14.82;;
29206;SDS011;16247;50.840;4.382;2023-02-08T07:47:24;21.65;;;13.25;;
29206;SDS011;16247;50.840;4.382;2023-02-08T07:49:49;30.50;;;13.05;;
29206;SDS011;16247;50.840;4.382;2023-02-08T07:52:17;23.88;;;12.90;;
29206;SDS011;16247;50.840;4.382;2023-02-08T07:54:45;29.08;;;15.23;;
29206;SDS011;16247;50.840;4.382;2023-02-08T07:57:10;25.92;;;12.98;;
29206;SDS011;16247;50.840;4.382;2023-02-08T08:00:00;25.60;;;11.75;;
29206;SDS011;16247;50.840;4.382;2023-02-08T08:02:28;23.55;;;13.18;;
29206;SDS011;16247;50.840;4.382;2023-02-08T08:05:06;26.02;;;12.05;;
29206;SDS011;16247;50.840;4.382;2023-02-08T08:07:35;20.30;;;13.07;;
29206;SDS011;16247;50.840;4.382;2023-02-08T08:10:01;22.35;;;11.25;;
29206;SDS011;16247;50.840;4.382;2023-02-08T08:12:30;22.35;;;11.60;;
29206;SDS011;16247;50.840;4.382;2023-02-08T08:17:47;26.05;;;11.75;;
29206;SDS011;16247;50.840;4.382;2023-02-08T08:20:14;21.40;;;11.00;;
29206;SDS011;16247;50.840;4.382;2023-02-08T08:23:02;23.40;;;12.18;;
29206;SDS011;16247;50.840;4.382;2023-02-08T08:25:31;23.85;;;11.70;;
29206;SDS011;16247;50.840;4.382;2023-02-08T08:28:02;20.67;;;10.38;;
29206;SDS011;16247;50.840;4.382;2023-02-08T08:31:20;22.45;;;11.70;;
29206;SDS011;16247;50.840;4.382;2023-02-08T08:33:47;21.77;;;11.07;;
29206;SDS011;16247;50.840;4.382;2023-02-08T08:36:38;17.95;;;9.75;;
29206;SDS011;16247;50.840;4.382;2023-02-08T08:39:05;30.17;;;12.98;;
29206;SDS011;16247;50.840;4.382;2023-02-08T08:41:31;24.58;;;11.88;;
29206;SDS011;16247;50.840;4.382;2023-02-08T08:43:58;19.90;;;10.57;;
29206;SDS011;16247;50.840;4.382;2023-02-08T08:46:25;19.05;;;11.07;;
29206;SDS011;16247;50.840;4.382;2023-02-08T08:48:51;19.67;;;11.52;;
29206;SDS011;16247;50.840;4.382;2023-02-08T08:51:16;31.23;;;12.10;;
29206;SDS011;16247;50.840;4.382;2023-02-08T08:53:42;21.75;;;9.57;;
29206;SDS011;16247;50.840;4.382;2023-02-08T08:56:12;24.30;;;11.13;;
29206;SDS011;16247;50.840;4.382;2023-02-08T08:58:38;17.50;;;9.85;;
29206;SDS011;16247;50.840;4.382;2023-02-08T09:01:03;26.85;;;10.00;;
29206;SDS011;16247;50.840;4.382;2023-02-08T09:03:29;19.88;;;11.20;;
29206;SDS011;16247;50.840;4.382;2023-02-08T09:05:57;26.27;;;11.55;;
29206;SDS011;16247;50.840;4.382;2023-02-08T09:08:24;18.95;;;9.85;;
29206;SDS011;16247;50.840;4.382;2023-02-08T09:10:51;19.42;;;10.60;;
29206;SDS011;16247;50.840;4.382;2023-02-08T09:13:18;29.47;;;12.10;;
29206;SDS011;16247;50.840;4.382;2023-02-08T09:15:46;21.48;;;10.38;;
29206;SDS011;16247;50.840;4.382;2023-02-08T09:18:12;22.80;;;8.88;;
29206;SDS011;16247;50.840;4.382;2023-02-08T09:20:38;21.33;;;9.73;;
29206;SDS011;16247;50.840;4.382;2023-02-08T09:23:05;21.92;;;9.20;;
29206;SDS011;16247;50.840;4.382;2023-02-08T09:25:31;18.40;;;9.07;;
29206;SDS011;16247;50.840;4.382;2023-02-08T09:28:04;20.52;;;9.23;;
29206;SDS011;16247;50.840;4.382;2023-02-08T09:30:30;19.70;;;8.55;;
29206;SDS011;16247;50.840;4.382;2023-02-08T09:32:57;31.35;;;9.50;;
29206;SDS011;16247;50.840;4.382;2023-02-08T09:35:23;25.27;;;9.63;;
29206;SDS011;16247;50.840;4.382;2023-02-08T09:37:51;18.33;;;9.27;;
29206;SDS011;16247;50.840;4.382;2023-02-08T09:40:24;18.05;;;8.82;;
29206;SDS011;16247;50.840;4.382;2023-02-08T09:43:06;26.85;;;9.85;;
29206;SDS011;16247;50.840;4.382;2023-02-08T09:45:47;17.05;;;8.52;;
29206;SDS011;16247;50.840;4.382;2023-02-08T09:48:35;16.60;;;8.88;;
29206;SDS011;16247;50.840;4.382;2023-02-08T09:54:01;17.75;;;8.65;;
29206;SDS011;16247;50.840;4.382;2023-02-08T09:59:50;15.38;;;7.00;;
29206;SDS011;16247;50.840;4.382;2023-02-08T10:05:01;16.27;;;7.45;;
29206;SDS011;16247;50.840;4.382;2023-02-08T10:07:38;15.13;;;7.43;;
29206;SDS011;16247;50.840;4.382;2023-02-08T10:10:20;12.73;;;6.95;;
29206;SDS011;16247;50.840;4.382;2023-02-08T10:16:26;12.75;;;6.55;;
29206;SDS011;16247;50.840;4.382;2023-02-08T10:22:26;13.90;;;6.68;;
29206;SDS011;16247;50.840;4.382;2023-02-08T10:28:04;11.10;;;6.15;;
29206;SDS011;16247;50.840;4.382;2023-02-08T10:34:35;11.57;;;6.13;;
29206;SDS011;16247;50.840;4.382;2023-02-08T10:37:17;13.00;;;6.88;;
29206;SDS011;16247;50.840;4.382;2023-02-08T10:39:51;14.57;;;6.25;;
29206;SDS011;16247;50.840;4.382;2023-02-08T10:42:20;17.98;;;6.35;;
29206;SDS011;16247;50.840;4.382;2023-02-08T10:47:46;10.05;;;4.93;;
29206;SDS011;16247;50.840;4.382;2023-02-08T10:50:24;9.32;;;4.22;;
29206;SDS011;16247;50.840;4.382;2023-02-08T10:53:15;8.38;;;4.63;;
29206;SDS011;16247;50.840;4.382;2023-02-08T10:55:44;10.75;;;5.05;;
29206;SDS011;16247;50.840;4.382;2023-02-08T10:58:19;18.25;;;6.72;;
29206;SDS011;16247;50.840;4.382;2023-02-08T11:00:50;19.02;;;6.45;;
29206;SDS011;16247;50.840;4.382;2023-02-08T11:03:24;11.23;;;4.43;;
29206;SDS011;16247;50.840;4.382;2023-02-08T11:05:52;8.30;;;4.18;;
29206;SDS011;16247;50.840;4.382;2023-02-08T11:08:19;13.00;;;5.50;;
29206;SDS011;16247;50.840;4.382;2023-02-08T11:13:41;11.00;;;3.95;;
29206;SDS011;16247;50.840;4.382;2023-02-08T11:16:19;14.45;;;3.95;;
29206;SDS011;16247;50.840;4.382;2023-02-08T11:18:47;7.40;;;3.67;;
29206;SDS011;16247;50.840;4.382;2023-02-08T11:21:30;7.60;;;4.50;;
29206;SDS011;16247;50.840;4.382;2023-02-08T11:24:27;7.53;;;3.35;;
29206;SDS011;16247;50.840;4.382;2023-02-08T11:26:54;15.60;;;4.45;;
29206;SDS011;16247;50.840;4.382;2023-02-08T11:29:26;7.90;;;3.17;;
29206;SDS011;16247;50.840;4.382;2023-02-08T11:37:12;9.07;;;3.80;;
29206;SDS011;16247;50.840;4.382;2023-02-08T11:39:43;6.68;;;2.70;;
29206;SDS011;16247;50.840;4.382;2023-02-08T11:42:33;5.63;;;2.97;;
29206;SDS011;16247;50.840;4.382;2023-02-08T11:45:02;8.43;;;3.75;;
29206;SDS011;16247;50.840;4.382;2023-02-08T11:47:30;7.28;;;3.63;;
29206;SDS011;16247;50.840;4.382;2023-02-08T11:49:58;8.13;;;2.88;;
29206;SDS011;16247;50.840;4.382;2023-02-08T11:52:29;10.88;;;3.55;;
29206;SDS011;16247;50.840;4.382;2023-02-08T12:05:48;8.73;;;3.38;;
29206;SDS011;16247;50.840;4.382;2023-02-08T12:14:03;6.05;;;2.45;;
29206;SDS011;16247;50.840;4.382;2023-02-08T12:26:13;9.00;;;3.05;;
29206;SDS011;16247;50.840;4.382;2023-02-08T12:31:44;9.30;;;4.00;;
29206;SDS011;16247;50.840;4.382;2023-02-08T12:40:32;6.50;;;3.50;;
29206;SDS011;16247;50.840;4.382;2023-02-08T12:51:52;11.13;;;4.32;;
29206;SDS011;16247;50.840;4.382;2023-02-08T12:57:35;11.60;;;3.42;;
29206;SDS011;16247;50.840;4.382;2023-02-08T13:00:15;17.58;;;4.55;;
29206;SDS011;16247;50.840;4.382;2023-02-08T13:02:48;11.07;;;5.03;;
29206;SDS011;16247;50.840;4.382;2023-02-08T13:05:39;9.23;;;4.13;;
29206;SDS011;16247;50.840;4.382;2023-02-08T13:08:22;18.92;;;4.93;;
29206;SDS011;16247;50.840;4.382;2023-02-08T13:10:50;8.68;;;4.05;;
29206;SDS011;16247;50.840;4.382;2023-02-08T13:13:27;9.80;;;4.50;;
29206;SDS011;16247;50.840;4.382;2023-02-08T13:16:19;8.65;;;3.95;;
29206;SDS011;16247;50.840;4.382;2023-02-08T13:19:25;5.18;;;3.75;;
29206;SDS011;16247;50.840;4.382;2023-02-08T13:22:16;7.88;;;5.13;;
29206;SDS011;16247;50.840;4.382;2023-02-08T13:24:44;8.30;;;4.40;;
29206;SDS011;16247;50.840;4.382;2023-02-08T13:27:14;8.07;;;5.03;;
29206;SDS011;16247;50.840;4.382;2023-02-08T13:29:45;8.45;;;3.97;;
29206;SDS011;16247;50.840;4.382;2023-02-08T13:32:18;12.00;;;4.88;;
29206;SDS011;16247;50.840;4.382;2023-02-08T13:34:49;9.32;;;4.32;;
29206;SDS011;16247;50.840;4.382;2023-02-08T13:37:37;6.97;;;4.15;;
29206;SDS011;16247;50.840;4.382;2023-02-08T13:40:06;15.88;;;6.07;;
29206;SDS011;16247;50.840;4.382;2023-02-08T13:42:54;9.23;;;4.50;;
29206;SDS011;16247;50.840;4.382;2023-02-08T13:45:29;12.93;;;5.43;;
29206;SDS011;16247;50.840;4.382;2023-02-08T13:48:08;9.93;;;4.70;;
29206;SDS011;16247;50.840;4.382;2023-02-08T13:50:46;7.65;;;4.25;;
29206;SDS011;16247;50.840;4.382;2023-02-08T13:53:17;8.55;;;4.50;;
29206;SDS011;16247;50.840;4.382;2023-02-08T13:56:06;9.43;;;4.07;;
29206;SDS011;16247;50.840;4.382;2023-02-08T14:04:31;8.45;;;4.40;;
29206;SDS011;16247;50.840;4.382;2023-02-08T14:06:36;9.68;;;4.50;;
29206;SDS011;16247;50.840;4.382;2023-02-08T14:09:17;7.03;;;4.10;;
29206;SDS011;16247;50.840;4.382;2023-02-08T14:15:31;6.40;;;3.75;;
29206;SDS011;16247;50.840;4.382;2023-02-08T14:18:02;6.75;;;3.53;;
29206;SDS011;16247;50.840;4.382;2023-02-08T14:20:40;6.50;;;3.35;;
29206;SDS011;16247;50.840;4.382;2023-02-08T14:25:54;6.95;;;4.25;;
29206;SDS011;16247;50.840;4.382;2023-02-08T14:28:38;8.95;;;4.63;;
29206;SDS011;16247;50.840;4.382;2023-02-08T14:31:13;6.43;;;3.90;;
29206;SDS011;16247;50.840;4.382;2023-02-08T14:33:49;11.00;;;4.95;;
29206;SDS011;16247;50.840;4.382;2023-02-08T14:36:24;10.95;;;4.10;;
29206;SDS011;16247;50.840;4.382;2023-02-08T14:39:39;10.55;;;4.88;;
29206;SDS011;16247;50.840;4.382;2023-02-08T14:41:51;11.63;;;5.13;;
29206;SDS011;16247;50.840;4.382;2023-02-08T14:47:09;16.67;;;9.82;;
29206;SDS011;16247;50.840;4.382;2023-02-08T14:49:41;9.35;;;4.80;;
29206;SDS011;16247;50.840;4.382;2023-02-08T14:52:13;12.05;;;6.35;;
29206;SDS011;16247;50.840;4.382;2023-02-08T14:57:28;10.20;;;5.05;;
29206;SDS011;16247;50.840;4.382;2023-02-08T15:00:00;10.85;;;5.55;;
29206;SDS011;16247;50.840;4.382;2023-02-08T15:05:18;19.20;;;5.38;;
29206;SDS011;16247;50.840;4.382;2023-02-08T15:07:50;10.60;;;5.53;;
29206;SDS011;16247;50.840;4.382;2023-02-08T15:10:20;14.05;;;6.28;;
29206;SDS011;16247;50.840;4.382;2023-02-08T15:13:05;11.50;;;5.03;;
29206;SDS011;16247;50.840;4.382;2023-02-08T15:15:44;11.13;;;5.05;;
29206;SDS011;16247;50.840;4.382;2023-02-08T15:18:16;12.32;;;4.85;;
29206;SDS011;16247;50.840;4.382;2023-02-08T15:20:47;12.55;;;5.40;;
29206;SDS011;16247;50.840;4.382;2023-02-08T15:23:24;7.57;;;4.90;;
29206;SDS011;16247;50.840;4.382;2023-02-08T15:25:55;12.35;;;5.10;;
29206;SDS011;16247;50.840;4.382;2023-02-08T15:28:28;13.82;;;5.82;;
29206;SDS011;16247;50.840;4.382;2023-02-08T15:31:05;12.35;;;6.20;;
29206;SDS011;16247;50.840;4.382;2023-02-08T15:36:24;13.90;;;6.55;;
29206;SDS011;16247;50.840;4.382;2023-02-08T15:39:01;10.18;;;5.38;;
29206;SDS011;16247;50.840;4.382;2023-02-08T15:41:42;12.60;;;6.20;;
29206;SDS011;16247;50.840;4.382;2023-02-08T15:46:54;11.23;;;6.13;;
29206;SDS011;16247;50.840;4.382;2023-02-08T15:49:33;13.80;;;6.07;;
29206;SDS011;16247;50.840;4.382;2023-02-08T15:52:15;9.07;;;5.57;;
29206;SDS011;16247;50.840;4.382;2023-02-08T15:54:43;12.63;;;5.70;;
29206;SDS011;16247;50.840;4.382;2023-02-08T15:57:21;13.07;;;5.93;;
29206;SDS011;16247;50.840;4.382;2023-02-08T16:00:02;17.35;;;6.07;;
29206;SDS011;16247;50.840;4.382;2023-02-08T16:02:34;10.93;;;5.68;;
29206;SDS011;16247;50.840;4.382;2023-02-08T16:05:01;12.55;;;6.10;;
29206;SDS011;16247;50.840;4.382;2023-02-08T16:13:26;12.20;;;5.55;;
29206;SDS011;16247;50.840;4.382;2023-02-08T16:18:57;13.70;;;5.65;;
29206;SDS011;16247;50.840;4.382;2023-02-08T16:21:37;12.93;;;8.23;;
29206;SDS011;16247;50.840;4.382;2023-02-08T16:27:06;11.75;;;5.47;;
29206;SDS011;16247;50.840;4.382;2023-02-08T16:29:48;16.20;;;7.35;;
29206;SDS011;16247;50.840;4.382;2023-02-08T16:34:50;12.35;;;5.30;;
29206;SDS011;16247;50.840;4.382;2023-02-08T16:37:27;9.38;;;4.72;;
29206;SDS011;16247;50.840;4.382;2023-02-08T16:39:57;9.98;;;5.03;;
29206;SDS011;16247;50.840;4.382;2023-02-08T16:43:19;11.45;;;5.10;;
29206;SDS011;16247;50.840;4.382;2023-02-08T16:48:41;13.40;;;6.13;;
29206;SDS011;16247;50.840;4.382;2023-02-08T16:51:11;9.50;;;5.00;;
29206;SDS011;16247;50.840;4.382;2023-02-08T16:53:41;9.15;;;5.15;;
29206;SDS011;16247;50.840;4.382;2023-02-08T16:56:09;8.63;;;4.47;;
29206;SDS011;16247;50.840;4.382;2023-02-08T16:58:37;12.55;;;5.28;;
29206;SDS011;16247;50.840;4.382;2023-02-08T17:01:03;9.88;;;5.65;;
29206;SDS011;16247;50.840;4.382;2023-02-08T17:03:29;11.38;;;5.93;;
29206;SDS011;16247;50.840;4.382;2023-02-08T17:05:58;11.10;;;5.88;;
29206;SDS011;16247;50.840;4.382;2023-02-08T17:10:52;13.07;;;5.43;;
29206;SDS011;16247;50.840;4.382;2023-02-08T17:13:22;12.70;;;5.78;;
29206;SDS011;16247;50.840;4.382;2023-02-08T17:18:18;15.10;;;6.05;;
29206;SDS011;16247;50.840;4.382;2023-02-08T17:20:44;12.13;;;5.53;;
29206;SDS011;16247;50.840;4.382;2023-02-08T17:23:11;11.68;;;5.22;;
29206;SDS011;16247;50.840;4.382;2023-02-08T17:25:39;8.32;;;4.85;;
29206;SDS011;16247;50.840;4.382;2023-02-08T17:28:08;9.55;;;5.53;;
29206;SDS011;16247;50.840;4.382;2023-02-08T17:30:41;13.15;;;5.53;;
29206;SDS011;16247;50.840;4.382;2023-02-08T17:33:07;13.63;;;5.75;;
29206;SDS011;16247;50.840;4.382;2023-02-08T17:35:46;15.07;;;5.88;;
29206;SDS011;16247;50.840;4.382;2023-02-08T17:38:13;14.30;;;5.70;;
29206;SDS011;16247;50.840;4.382;2023-02-08T17:40:39;16.50;;;5.97;;
29206;SDS011;16247;50.840;4.382;2023-02-08T17:43:05;14.05;;;6.18;;
29206;SDS011;16247;50.840;4.382;2023-02-08T17:45:35;12.65;;;6.28;;
29206;SDS011;16247;50.840;4.382;2023-02-08T17:48:04;14.00;;;7.10;;
29206;SDS011;16247;50.840;4.382;2023-02-08T17:50:30;17.65;;;6.45;;
29206;SDS011;16247;50.840;4.382;2023-02-08T17:52:55;13.20;;;6.15;;
29206;SDS011;16247;50.840;4.382;2023-02-08T17:55:21;16.70;;;7.65;;